createdAt,value
2023-02-04T00:01:59.854Z,7.57
2023-02-04T00:04:49.763Z,7.45
2023-02-04T00:07:41.376Z,8.52
2023-02-04T00:10:32.513Z,8.23
2023-02-04T00:13:22.740Z,8.63
2023-02-04T00:16:12.911Z,9.18
2023-02-04T00:19:03.083Z,8.35
2023-02-04T00:21:53.281Z,8.65
2023-02-04T00:24:48.408Z,8.32
2023-02-04T00:27:38.829Z,7.72
2023-02-04T00:30:29.857Z,8.50
2023-02-04T00:33:20.253Z,7.30
2023-02-04T00:36:10.585Z,6.50
2023-02-04T00:39:00.551Z,7.10
2023-02-04T00:41:51.183Z,6.05
2023-02-04T00:44:41.558Z,5.57
2023-02-04T00:47:31.616Z,5.63
2023-02-04T00:50:21.646Z,5.70
2023-02-04T00:53:11.618Z,5.63
2023-02-04T00:56:01.683Z,5.55
2023-02-04T00:58:51.768Z,4.95
2023-02-04T01:01:42.425Z,4.47
2023-02-04T01:04:32.965Z,3.53
2023-02-04T01:07:23.577Z,3.78
2023-02-04T01:10:14.692Z,3.30
2023-02-04T01:13:05.133Z,2.55
2023-02-04T01:15:55.135Z,2.90
2023-02-04T01:18:45.352Z,3.83
2023-02-04T01:21:35.611Z,2.55
2023-02-04T01:24:25.944Z,2.72
2023-02-04T01:27:34.924Z,2.85
2023-02-04T01:30:26.905Z,3.63
2023-02-04T01:33:19.098Z,3.33
2023-02-04T01:36:09.601Z,3.28
2023-02-04T01:39:01.027Z,3.00
2023-02-04T01:41:51.217Z,2.83
2023-02-04T01:44:41.886Z,2.90
2023-02-04T01:47:32.836Z,2.60
2023-02-04T01:50:23.094Z,2.72
2023-02-04T01:53:14.763Z,2.83
2023-02-04T01:56:26.450Z,2.58
2023-02-04T01:59:18.280Z,2.30
2023-02-04T02:02:39.864Z,2.47
2023-02-04T02:05:36.003Z,2.80
2023-02-04T02:08:26.309Z,2.28
2023-02-04T02:11:16.768Z,2.80
2023-02-04T02:14:07.282Z,2.88
2023-02-04T02:16:57.561Z,2.55
2023-02-04T02:19:47.711Z,2.40
2023-02-04T02:22:52.572Z,1.98
2023-02-04T02:28:32.995Z,2.10
2023-02-04T02:31:23.727Z,2.13
2023-02-04T02:34:14.180Z,2.58
2023-02-04T02:37:05.079Z,2.20
2023-02-04T02:39:55.965Z,2.15
2023-02-04T02:42:49.919Z,2.85
2023-02-04T02:45:40.277Z,2.10
2023-02-04T02:48:30.376Z,2.45
2023-02-04T02:51:20.604Z,2.90
2023-02-04T02:54:21.685Z,2.65
2023-02-04T02:57:16.842Z,2.70
2023-02-04T03:00:21.754Z,2.72
2023-02-04T03:03:17.757Z,2.90
2023-02-04T03:06:10.103Z,2.30
2023-02-04T03:09:00.666Z,2.90
2023-02-04T03:11:51.206Z,2.35
2023-02-04T03:14:41.681Z,1.98
2023-02-04T03:17:32.195Z,2.45
2023-02-04T03:20:25.450Z,2.45
2023-02-04T03:23:16.090Z,2.78
2023-02-04T03:26:06.872Z,2.53
2023-02-04T03:28:57.095Z,2.92
2023-02-04T03:31:49.260Z,2.58
2023-02-04T03:34:39.305Z,2.90
2023-02-04T03:37:29.765Z,3.03
2023-02-04T03:40:19.977Z,3.08
2023-02-04T03:43:10.181Z,2.70
2023-02-04T03:46:00.277Z,2.63
2023-02-04T03:48:50.499Z,2.75
2023-02-04T03:51:40.884Z,2.85
2023-02-04T03:54:30.913Z,2.75
2023-02-04T03:57:21.689Z,2.38
2023-02-04T04:00:13.605Z,3.75
2023-02-04T04:03:03.944Z,2.42
2023-02-04T04:05:53.966Z,3.20
2023-02-04T04:08:43.809Z,2.63
2023-02-04T04:11:35.897Z,2.45
2023-02-04T04:14:26.303Z,2.25
2023-02-04T04:17:16.737Z,2.83
2023-02-04T04:20:07.233Z,2.65
2023-02-04T04:22:57.448Z,2.65
2023-02-04T04:25:47.413Z,2.92
2023-02-04T04:28:37.909Z,2.85
2023-02-04T04:31:28.176Z,2.85
2023-02-04T04:34:18.723Z,2.83
2023-02-04T04:37:08.836Z,2.63
2023-02-04T04:40:00.389Z,3.22
2023-02-04T04:42:50.682Z,2.60
2023-02-04T04:45:40.605Z,3.30
2023-02-04T04:48:30.530Z,3.30
2023-02-04T04:51:21.142Z,2.78
2023-02-04T04:54:11.097Z,3.13
2023-02-04T04:57:01.327Z,3.35
2023-02-04T04:59:51.501Z,3.17
2023-02-04T05:02:41.976Z,3.28
2023-02-04T05:05:32.008Z,3.83
2023-02-04T05:08:22.282Z,4.35
2023-02-04T05:11:12.194Z,4.53
2023-02-04T05:14:02.342Z,4.30
2023-02-04T05:16:52.682Z,4.88
2023-02-04T05:19:42.799Z,5.93
2023-02-04T05:22:32.743Z,4.45
2023-02-04T05:25:23.478Z,4.47
2023-02-04T05:28:13.804Z,4.03
2023-02-04T05:31:04.525Z,4.20
2023-02-04T05:33:55.293Z,4.10
2023-02-04T05:36:45.365Z,4.57
2023-02-04T05:39:35.650Z,3.60
2023-02-04T05:42:26.558Z,4.60
2023-02-04T05:45:18.895Z,4.95
2023-02-04T05:48:08.863Z,4.75
2023-02-04T05:50:58.907Z,4.53
2023-02-04T05:53:48.735Z,5.45
2023-02-04T05:56:38.641Z,4.07
2023-02-04T05:59:28.858Z,4.25
2023-02-04T06:02:19.614Z,4.35
2023-02-04T06:05:09.895Z,4.35
2023-02-04T06:08:00.190Z,4.40
2023-02-04T06:10:50.656Z,4.40
2023-02-04T06:13:40.819Z,4.82
2023-02-04T06:16:31.188Z,4.18
2023-02-04T06:19:21.484Z,4.55
2023-02-04T06:22:11.586Z,4.47
2023-02-04T06:25:01.658Z,3.78
2023-02-04T06:27:51.923Z,4.50
2023-02-04T06:30:44.213Z,4.70
2023-02-04T06:33:35.269Z,4.53
2023-02-04T06:36:25.266Z,4.78
2023-02-04T06:39:15.578Z,5.13
2023-02-04T06:42:05.964Z,4.43
2023-02-04T06:44:56.072Z,4.15
2023-02-04T06:47:46.121Z,4.82
2023-02-04T06:50:36.548Z,4.00
2023-02-04T06:53:26.768Z,4.22
2023-02-04T06:56:16.755Z,4.00
2023-02-04T06:59:06.995Z,4.05
2023-02-04T07:01:57.266Z,4.07
2023-02-04T07:04:47.872Z,4.90
2023-02-04T07:07:38.114Z,4.88
2023-02-04T07:10:29.234Z,5.15
2023-02-04T07:13:19.472Z,4.97
2023-02-04T07:16:09.585Z,5.03
2023-02-04T07:18:59.933Z,4.60
2023-02-04T07:21:53.935Z,4.28
2023-02-04T07:24:44.600Z,5.93
2023-02-04T07:27:34.999Z,5.80
2023-02-04T07:30:25.311Z,5.03
2023-02-04T07:33:15.670Z,5.18
2023-02-04T07:36:05.880Z,4.50
2023-02-04T07:38:56.197Z,4.25
2023-02-04T07:41:46.159Z,4.63
2023-02-04T07:44:38.667Z,3.88
2023-02-04T07:47:28.874Z,4.65
2023-02-04T07:50:19.049Z,4.45
2023-02-04T07:53:09.409Z,4.82
2023-02-04T07:55:59.794Z,5.75
2023-02-04T07:58:55.734Z,4.50
2023-02-04T08:01:49.077Z,4.47
2023-02-04T08:04:42.191Z,4.97
2023-02-04T08:07:36.090Z,4.97
2023-02-04T08:10:26.421Z,4.80
2023-02-04T08:13:20.708Z,4.65
2023-02-04T08:16:14.597Z,4.03
2023-02-04T08:19:05.191Z,4.00
2023-02-04T08:21:55.177Z,4.90
2023-02-04T08:24:45.198Z,4.93
2023-02-04T08:27:35.391Z,5.75
2023-02-04T08:30:25.757Z,4.90
2023-02-04T08:33:16.050Z,6.35
2023-02-04T08:36:07.445Z,5.45
2023-02-04T08:38:57.999Z,5.35
2023-02-04T08:41:49.361Z,5.63
2023-02-04T08:44:39.526Z,5.72
2023-02-04T08:47:29.889Z,5.18
2023-02-04T08:50:19.907Z,5.53
2023-02-04T08:53:09.953Z,5.70
2023-02-04T08:56:00.137Z,6.30
2023-02-04T08:58:51.008Z,5.95
2023-02-04T09:01:41.165Z,5.97
2023-02-04T09:04:31.193Z,5.75
2023-02-04T09:07:21.687Z,6.38
2023-02-04T09:10:11.844Z,6.43
2023-02-04T09:13:02.104Z,5.90
2023-02-04T09:15:54.201Z,6.63
2023-02-04T09:18:44.457Z,6.30
2023-02-04T09:21:35.731Z,6.35
2023-02-04T09:24:25.777Z,7.85
2023-02-04T09:27:15.742Z,7.35
2023-02-04T09:30:06.180Z,7.38
2023-02-04T09:32:56.388Z,6.57
2023-02-04T09:35:46.757Z,6.03
2023-02-04T09:38:37.013Z,6.00
2023-02-04T09:41:26.986Z,6.40
2023-02-04T09:44:21.104Z,7.13
2023-02-04T09:50:02.259Z,4.50
2023-02-04T09:52:55.350Z,4.55
2023-02-04T09:55:47.908Z,4.97
2023-02-04T09:58:38.362Z,4.65
2023-02-04T10:01:29.398Z,4.22
2023-02-04T10:04:22.114Z,3.63
2023-02-04T10:07:13.370Z,3.92
2023-02-04T10:10:03.683Z,4.68
2023-02-04T10:12:57.530Z,4.20
2023-02-04T10:15:50.026Z,4.28
2023-02-04T10:18:40.930Z,4.00
2023-02-04T10:21:33.237Z,3.58
2023-02-04T10:24:26.453Z,3.35
2023-02-04T10:27:16.491Z,3.55
2023-02-04T10:30:07.452Z,2.97
2023-02-04T10:32:57.620Z,3.78
2023-02-04T10:35:49.970Z,4.07
2023-02-04T10:38:40.287Z,4.00
2023-02-04T10:41:30.297Z,4.03
2023-02-04T10:44:32.941Z,2.97
2023-02-04T10:47:25.421Z,2.92
2023-02-04T10:50:19.196Z,3.72
2023-02-04T10:53:30.063Z,3.45
2023-02-04T10:56:21.740Z,2.97
2023-02-04T10:59:23.717Z,3.25
2023-02-04T11:02:32.542Z,3.00
2023-02-04T11:05:29.068Z,3.53
2023-02-04T11:08:25.817Z,3.03
2023-02-04T11:11:22.788Z,2.65
2023-02-04T11:14:28.216Z,2.42
2023-02-04T11:17:21.623Z,2.83
2023-02-04T11:20:16.702Z,3.22
2023-02-04T11:23:25.503Z,3.20
2023-02-04T11:26:19.150Z,3.05
2023-02-04T11:29:38.102Z,3.13
2023-02-04T11:32:38.237Z,2.72
2023-02-04T11:35:30.249Z,2.70
2023-02-04T11:38:27.322Z,2.60
2023-02-04T11:41:31.013Z,3.05
2023-02-04T11:44:23.126Z,2.75
2023-02-04T11:47:14.197Z,2.35
2023-02-04T11:50:23.562Z,2.58
2023-02-04T11:53:14.694Z,2.67
2023-02-04T11:56:05.183Z,2.80
2023-02-04T11:58:57.670Z,2.33
2023-02-04T12:01:48.128Z,2.58
2023-02-04T12:04:38.177Z,2.80
2023-02-04T12:07:30.226Z,2.65
2023-02-04T12:10:25.746Z,2.78
2023-02-04T12:13:32.614Z,3.05
2023-02-04T12:16:23.614Z,2.80
2023-02-04T12:19:14.105Z,2.40
2023-02-04T12:22:04.112Z,3.08
2023-02-04T12:24:59.270Z,3.58
2023-02-04T12:27:50.156Z,2.95
2023-02-04T12:30:40.184Z,3.28
2023-02-04T12:33:30.390Z,3.05
2023-02-04T12:36:21.074Z,2.80
2023-02-04T12:39:11.153Z,2.65
2023-02-04T12:42:01.365Z,3.20
2023-02-04T12:44:51.782Z,2.78
2023-02-04T12:47:42.985Z,3.03
2023-02-04T12:50:33.532Z,3.40
2023-02-04T12:53:24.084Z,3.33
2023-02-04T12:56:18.567Z,2.35
2023-02-04T12:59:09.217Z,3.00
2023-02-04T13:01:59.603Z,2.88
2023-02-04T13:04:50.015Z,2.47
2023-02-04T13:07:40.890Z,3.50
2023-02-04T13:10:30.849Z,2.60
2023-02-04T13:13:21.718Z,3.20
2023-02-04T13:16:12.654Z,3.10
2023-02-04T13:19:02.676Z,3.20
2023-02-04T13:21:52.553Z,2.25
2023-02-04T13:24:43.181Z,3.03
2023-02-04T13:27:33.415Z,2.38
2023-02-04T13:30:23.459Z,2.42
2023-02-04T13:33:14.050Z,2.03
2023-02-04T13:36:04.494Z,2.15
2023-02-04T13:38:54.434Z,2.63
2023-02-04T13:41:44.399Z,2.20
2023-02-04T13:44:34.603Z,2.40
2023-02-04T13:47:24.396Z,2.60
2023-02-04T13:50:15.904Z,2.35
2023-02-04T13:53:06.073Z,2.08
2023-02-04T13:55:56.094Z,2.03
2023-02-04T13:58:46.562Z,2.10
2023-02-04T14:01:37.066Z,1.73
2023-02-04T14:04:27.371Z,1.77
2023-02-04T14:07:17.375Z,2.20
2023-02-04T14:10:08.016Z,1.77
2023-02-04T14:12:58.684Z,1.50
2023-02-04T14:15:48.805Z,1.63
2023-02-04T14:18:38.658Z,1.60
2023-02-04T14:21:28.535Z,1.92
2023-02-04T14:24:18.571Z,2.40
2023-02-04T14:27:09.546Z,1.58
2023-02-04T14:29:59.692Z,1.70
2023-02-04T14:32:50.033Z,1.88
2023-02-04T14:35:40.393Z,1.52
2023-02-04T14:38:31.133Z,2.38
2023-02-04T14:41:21.444Z,1.40
2023-02-04T14:44:11.526Z,1.70
2023-02-04T14:47:01.287Z,1.98
2023-02-04T14:49:51.688Z,1.95
2023-02-04T14:52:42.254Z,1.95
2023-02-04T14:55:32.338Z,1.13
2023-02-04T14:58:22.387Z,1.73
2023-02-04T15:01:12.491Z,1.58
2023-02-04T15:04:02.704Z,1.75
2023-02-04T15:06:53.954Z,1.65
2023-02-04T15:09:44.691Z,1.63
2023-02-04T15:12:35.117Z,1.83
2023-02-04T15:15:25.338Z,1.90
2023-02-04T15:18:15.160Z,2.00
2023-02-04T15:21:05.383Z,1.83
2023-02-04T15:23:55.390Z,1.83
2023-02-04T15:26:45.283Z,1.70
2023-02-04T15:29:35.342Z,1.70
2023-02-04T15:32:25.966Z,3.45
2023-02-04T15:35:16.101Z,1.92
2023-02-04T15:38:06.239Z,2.00
2023-02-04T15:40:56.124Z,1.95
2023-02-04T15:43:48.824Z,1.77
2023-02-04T15:46:39.195Z,1.67
2023-02-04T15:49:29.527Z,1.35
2023-02-04T15:52:25.145Z,1.50
2023-02-04T15:55:15.509Z,1.83
2023-02-04T15:58:05.844Z,1.88
2023-02-04T16:00:55.833Z,2.72
2023-02-04T16:03:47.265Z,2.33
2023-02-04T16:06:38.922Z,3.25
2023-02-04T16:09:31.655Z,3.33
2023-02-04T16:12:21.710Z,6.55
2023-02-04T16:15:12.215Z,5.38
2023-02-04T16:18:02.117Z,6.78
2023-02-04T16:20:52.267Z,7.55
2023-02-04T16:23:43.640Z,8.00
2023-02-04T16:26:33.800Z,8.93
2023-02-04T16:29:24.444Z,6.20
2023-02-04T16:32:15.439Z,3.50
2023-02-04T16:35:06.756Z,3.33
2023-02-04T16:37:57.062Z,2.88
2023-02-04T16:40:46.812Z,2.60
2023-02-04T16:43:37.351Z,1.88
2023-02-04T16:46:28.720Z,2.45
2023-02-04T16:49:18.808Z,2.47
2023-02-04T16:52:08.769Z,2.05
2023-02-04T16:54:59.533Z,2.13
2023-02-04T16:57:49.889Z,3.38
2023-02-04T17:00:42.155Z,4.00
2023-02-04T17:03:32.156Z,45.90
2023-02-04T17:06:21.937Z,5.25
2023-02-04T17:09:12.211Z,2.78
2023-02-04T17:12:02.497Z,2.75
2023-02-04T17:14:52.664Z,2.80
2023-02-04T17:17:42.623Z,2.40
2023-02-04T17:20:32.538Z,2.85
2023-02-04T17:23:22.653Z,3.70
2023-02-04T17:26:12.826Z,9.95
2023-02-04T17:29:11.299Z,14.13
2023-02-04T17:32:02.040Z,14.68
2023-02-04T17:34:55.029Z,16.13
2023-02-04T17:37:45.327Z,9.90
2023-02-04T17:40:35.797Z,8.68
2023-02-04T17:43:25.941Z,6.88
2023-02-04T17:46:16.248Z,8.13
2023-02-04T17:49:06.652Z,6.25
2023-02-04T17:51:56.566Z,4.72
2023-02-04T17:54:46.347Z,3.95
2023-02-04T17:57:37.358Z,5.57
2023-02-04T18:00:30.778Z,5.07
2023-02-04T18:03:24.215Z,5.75
2023-02-04T18:06:19.279Z,4.43
2023-02-04T18:09:15.476Z,4.07
2023-02-04T18:12:14.654Z,4.00
2023-02-04T18:15:23.121Z,3.15
2023-02-04T18:18:25.326Z,3.85
2023-02-04T18:21:31.172Z,4.22
2023-02-04T18:24:28.979Z,4.28
2023-02-04T18:27:28.235Z,4.85
2023-02-04T18:30:22.715Z,4.50
2023-02-04T18:33:24.992Z,4.82
2023-02-04T18:36:20.448Z,4.20
2023-02-04T18:39:17.797Z,4.70
2023-02-04T18:42:14.360Z,4.68
2023-02-04T18:45:25.613Z,5.65
2023-02-04T18:48:21.693Z,5.40
2023-02-04T18:51:25.759Z,4.68
2023-02-04T18:54:28.228Z,5.82
2023-02-04T18:57:29.581Z,6.30
2023-02-04T19:00:23.911Z,5.25
2023-02-04T19:03:30.458Z,5.75
2023-02-04T19:06:25.548Z,6.88
2023-02-04T19:09:24.632Z,7.45
2023-02-04T19:12:21.740Z,6.47
2023-02-04T19:15:34.218Z,5.72
2023-02-04T19:18:26.764Z,5.13
2023-02-04T19:21:17.995Z,6.50
2023-02-04T19:24:27.617Z,6.30
2023-02-04T19:27:29.186Z,6.40
2023-02-04T19:30:28.753Z,6.70
2023-02-04T19:33:50.528Z,7.35
2023-02-04T19:36:41.236Z,6.40
2023-02-04T19:39:40.331Z,6.20
2023-02-04T19:42:36.286Z,5.68
2023-02-04T19:45:26.375Z,6.55
2023-02-04T19:48:25.439Z,14.07
2023-02-04T19:51:27.913Z,9.30
2023-02-04T19:54:23.084Z,7.80
2023-02-04T19:57:33.600Z,7.78
2023-02-04T20:00:37.253Z,9.20
2023-02-04T20:03:35.636Z,9.23
2023-02-04T20:06:38.296Z,8.18
2023-02-04T20:09:30.929Z,8.45
2023-02-04T20:12:21.649Z,6.72
2023-02-04T20:15:17.785Z,9.60
2023-02-04T20:18:19.818Z,11.02
2023-02-04T20:21:11.498Z,12.63
2023-02-04T20:24:12.876Z,11.60
2023-02-04T20:27:27.925Z,12.18
2023-02-04T20:30:23.316Z,11.77
2023-02-04T20:33:28.626Z,11.27
2023-02-04T20:36:42.405Z,11.57
2023-02-04T20:39:38.598Z,10.48
2023-02-04T20:42:32.203Z,11.43
2023-02-04T20:45:34.142Z,12.30
2023-02-04T20:48:37.049Z,13.07
2023-02-04T20:51:27.375Z,10.95
2023-02-04T20:54:18.163Z,10.25
2023-02-04T20:57:17.754Z,10.48
2023-02-04T21:00:25.975Z,11.32
2023-02-04T21:03:16.027Z,10.25
2023-02-04T21:06:21.683Z,9.98
2023-02-04T21:09:28.218Z,10.05
2023-02-04T21:12:19.334Z,11.15
2023-02-04T21:15:09.874Z,14.35
2023-02-04T21:17:59.885Z,13.50
2023-02-04T21:20:50.301Z,12.85
2023-02-04T21:23:40.525Z,12.63
2023-02-04T21:26:30.458Z,12.90
2023-02-04T21:29:20.434Z,11.88
2023-02-04T21:32:10.538Z,12.23
2023-02-04T21:35:00.347Z,13.27
2023-02-04T21:37:58.894Z,11.60
2023-02-04T21:40:48.784Z,12.57
2023-02-04T21:43:38.735Z,12.32
2023-02-04T21:46:29.176Z,12.98
2023-02-04T21:49:19.836Z,11.98
2023-02-04T21:52:10.225Z,35.28
2023-02-04T21:55:00.385Z,15.30
2023-02-04T21:57:51.876Z,14.63
2023-02-04T22:00:42.512Z,14.00
2023-02-04T22:03:32.960Z,17.42
2023-02-04T22:06:22.914Z,15.90
2023-02-04T22:09:13.276Z,17.77
2023-02-04T22:12:04.319Z,20.67
2023-02-04T22:15:13.405Z,18.30
2023-02-04T22:18:03.725Z,19.50
2023-02-04T22:20:53.905Z,19.05
2023-02-04T22:23:43.782Z,19.67
2023-02-04T22:26:33.740Z,19.85
2023-02-04T22:29:28.730Z,19.23
2023-02-04T22:32:19.205Z,17.25
2023-02-04T22:35:10.715Z,18.52
2023-02-04T22:38:02.154Z,13.43
2023-02-04T22:40:52.341Z,17.23
2023-02-04T22:43:42.830Z,14.40
2023-02-04T22:46:32.926Z,15.82
2023-02-04T22:49:23.243Z,42.28
2023-02-04T22:52:14.245Z,37.60
2023-02-04T22:55:04.431Z,14.88
2023-02-04T22:57:54.293Z,12.50
2023-02-04T23:00:44.461Z,13.15
2023-02-04T23:03:34.741Z,11.85
2023-02-04T23:06:25.174Z,13.25
2023-02-04T23:09:15.746Z,12.95
2023-02-04T23:12:15.013Z,14.75
2023-02-04T23:15:05.584Z,12.32
2023-02-04T23:17:55.715Z,12.05
2023-02-04T23:20:45.599Z,12.52
2023-02-04T23:23:36.227Z,12.38
2023-02-04T23:26:26.453Z,12.27
2023-02-04T23:29:20.247Z,11.75
2023-02-04T23:32:10.778Z,10.88
2023-02-04T23:35:00.824Z,11.80
2023-02-04T23:37:50.765Z,11.55
2023-02-04T23:40:40.663Z,13.50
2023-02-04T23:43:30.544Z,12.80
2023-02-04T23:46:20.470Z,12.60
2023-02-04T23:49:11.215Z,12.00
2023-02-04T23:52:01.910Z,12.18
2023-02-04T23:54:52.185Z,12.23
2023-02-04T23:57:43.527Z,11.63
